Rize — 9HA2781 — position and weather

sailwx.info

Track history (hours):
 
Tides and Currents Weather Stations Pressure Air Temp Water Temp Dewpoint Dewpoint Depression Visibility Wind Speed Wind Dir Waves Ship Positions

Rize

Last reported at 2018-Mar-28 16:10 UTC. Time now 2018-Apr-23 02:02 UTC.
Position N 09°11' W 079°53'.
Warning: this ship's position is 25 days out of date.

Length 229 m; draft 14.4 m.

Type: Cargo ship. MMSI: 215677000.

Date/timePositionNaut miles runAvg speedWind from/ knotsBaromVisibWave heightAir tempDewpointWater temp
2018-Mar-28 16:10N 09°11' W 079°53'4 1.2
2018-Mar-28 12:58N 09°13' W 079°56'0 0.0
2018-Mar-28 11:52N 09°13' W 079°56'0 0.1
2018-Mar-28 11:13N 09°13' W 079°56'0 0.1
2018-Mar-28 10:52N 09°13' W 079°56'0 0.0
2018-Mar-28 10:28N 09°13' W 079°56'0 0.0
2018-Mar-28 09:58N 09°13' W 079°56'0 0.0
2018-Mar-28 09:28N 09°13' W 079°56'0 0.0
2018-Mar-28 08:58N 09°13' W 079°56'0 0.0
2018-Mar-28 08:01N 09°13' W 079°56'0 0.0
2018-Mar-28 07:40N 09°13' W 079°56'0 0.0
2018-Mar-28 06:40N 09°13' W 079°56'0 0.1
2018-Mar-28 06:28N 09°13' W 079°56'0 0.0
2018-Mar-28 05:52N 09°13' W 079°56'0 0.0
2018-Mar-28 05:28N 09°13' W 079°56'0 0.0
2018-Mar-28 04:46N 09°13' W 079°56'0 0.0
2018-Mar-28 03:55N 09°13' W 079°56'0 0.0
2018-Mar-28 03:28N 09°13' W 079°56'0 0.0
2018-Mar-27 23:19N 09°13' W 079°56'0 0.0
2018-Mar-27 22:58N 09°13' W 079°56'0 0.0
2018-Mar-27 22:25N 09°13' W 079°56'0 0.0
2018-Mar-27 21:58N 09°13' W 079°56'0 0.0
2018-Mar-27 21:25N 09°13' W 079°56'0 0.0
2018-Mar-27 17:22N 09°13' W 079°56'0 0.0
2018-Mar-27 16:58N 09°13' W 079°56'0 0.0
2018-Mar-27 16:30N 09°13' W 079°56'0 0.0
2018-Mar-27 16:00N 09°13' W 079°56'0 0.1
2018-Mar-27 15:22N 09°13' W 079°56'0 0.0
2018-Mar-27 14:52N 09°13' W 079°56'0 0.2
2018-Mar-27 14:29N 09°13' W 079°56'0 0.0
2018-Mar-27 14:00N 09°13' W 079°56'0 0.0
2018-Mar-27 13:30N 09°13' W 079°56'0 0.0
2018-Mar-27 12:58N 09°13' W 079°56'0 0.0
2018-Mar-27 12:30N 09°13' W 079°56'0 0.1
2018-Mar-27 11:56N 09°13' W 079°56'3 2.5
2018-Mar-27 10:37N 09°16' W 079°55'0 0.3
2018-Mar-27 10:24N 09°16' W 079°55'0 0.4
2018-Mar-27 10:00N 09°16' W 079°55'0 0.4
2018-Mar-27 09:30N 09°16' W 079°55'0 0.3
2018-Mar-27 08:59N 09°17' W 079°55'0 0.8
2018-Mar-27 08:29N 09°17' W 079°55'1 1.3
2018-Mar-27 08:00N 09°18' W 079°55'1 2.5
2018-Mar-27 07:30N 09°19' W 079°55'2 4.9
2018-Mar-27 07:00N 09°21' W 079°55'3 5.9
2018-Mar-27 06:30N 09°24' W 079°55'2 3.4
2018-Mar-27 06:00N 09°26' W 079°56'1 1.7
2018-Mar-27 05:30N 09°26' W 079°57'0 0.1
2018-Mar-27 04:59N 09°26' W 079°57'0 0.0
2018-Mar-27 04:23N 09°26' W 079°57'0 0.1
2018-Mar-27 03:59N 09°26' W 079°57'0 0.0
2018-Mar-27 03:29N 09°26' W 079°57'0 0.0
2018-Mar-27 02:20N 09°26' W 079°57'0 0.0
2018-Mar-27 01:11N 09°26' W 079°57'0 0.0
2018-Mar-27 00:41N 09°26' W 079°57'0 0.0
2018-Mar-27 00:29N 09°26' W 079°57'0 0.0
2018-Mar-26 23:53N 09°26' W 079°57'0 0.1
2018-Mar-26 23:29N 09°26' W 079°57'0 0.0
2018-Mar-26 22:56N 09°26' W 079°57'0 0.0
2018-Mar-26 22:26N 09°26' W 079°57'0 0.1
2018-Mar-26 21:59N 09°26' W 079°57'0 0.2
2018-Mar-26 21:29N 09°26' W 079°57'0 0.0
2018-Mar-26 20:59N 09°26' W 079°57'0 0.3
2018-Mar-26 20:29N 09°26' W 079°57'0 0.1
2018-Mar-26 19:59N 09°26' W 079°57'0 0.1
2018-Mar-26 19:29N 09°26' W 079°57'0 0.1
2018-Mar-26 18:56N 09°26' W 079°57'0 0.0
2018-Mar-26 18:29N 09°26' W 079°57'0 0.0
2018-Mar-26 17:59N 09°26' W 079°57'0 0.0
2018-Mar-26 09:56N 09°26' W 079°57'0 0.3
2018-Mar-26 09:29N 09°26' W 079°57'0 0.2
2018-Mar-26 08:59N 09°26' W 079°57'0 0.1
2018-Mar-26 08:23N 09°26' W 079°57'0 0.1
2018-Mar-26 07:59N 09°26' W 079°57'0 0.0
2018-Mar-26 06:05N 09°26' W 079°57'0 0.0
2018-Mar-26 05:59N 09°26' W 079°57'0 0.0
2018-Mar-26 03:23N 09°26' W 079°57'0 0.0
2018-Mar-26 02:59N 09°26' W 079°57'0 0.0
2018-Mar-26 02:29N 09°26' W 079°57'0 0.0
2018-Mar-26 01:59N 09°26' W 079°57'0 0.0
2018-Mar-26 01:29N 09°26' W 079°57'0 0.0
2018-Mar-26 00:59N 09°26' W 079°57'0 0.0
2018-Mar-25 23:50N 09°26' W 079°57'0 0.0
2018-Mar-25 23:26N 09°26' W 079°57'0 0.0
2018-Mar-25 22:47N 09°26' W 079°57'0 0.0
2018-Mar-25 22:29N 09°26' W 079°57'0 0.0
2018-Mar-25 21:59N 09°26' W 079°57'0 0.0
2018-Mar-25 21:29N 09°26' W 079°57'0 0.0
2018-Mar-25 20:50N 09°26' W 079°57'0 0.0
2018-Mar-25 20:29N 09°26' W 079°57'0 0.1
2018-Mar-25 19:59N 09°26' W 079°57'0 0.1
2018-Mar-25 19:29N 09°26' W 079°57'0 0.2
2018-Mar-25 18:59N 09°26' W 079°57'1 2.5
2018-Mar-25 18:30N 09°26' W 079°56'4 7.0
2018-Mar-25 18:00N 09°29' W 079°54'29911.6
2018-Mar-24 16:12N 11°07' W 075°06'313.8
2018-Mar-24 16:00N 11°08' W 075°04'713.5
2018-Mar-24 15:30N 11°09' W 074°57'613.0
2018-Mar-24 15:00N 11°10' W 074°50'612.7
2018-Mar-24 14:30N 11°10' W 074°44'712.9
2018-Mar-24 13:59N 11°09' W 074°37'713.2
2018-Mar-24 13:29N 11°09' W 074°31'  
2018-Mar-22 00:02N 11°06' W 074°18'112.0
2018-Mar-21 23:58N 11°06' W 074°18'8 4.3
2018-Mar-21 22:01N 11°14' W 074°15'0 2.2
2018-Mar-21 21:58N 11°14' W 074°15'49 9.9
2018-Mar-21 17:01N 12°03' W 074°19'713.7
2018-Mar-21 16:32N 12°09' W 074°20'213.8
2018-Mar-21 16:22N 12°12' W 074°20'  
Track history (hours):
 
Tides and Currents Weather Stations Pressure Air Temp Water Temp Dewpoint Dewpoint Depression Visibility Wind Speed Wind Dir Waves Ship Positions

Rize

Last reported at 2018-Mar-28 16:10 UTC. Time now 2018-Apr-23 02:02 UTC.
Position N 09°11' W 079°53'.
Warning: this ship's position is 25 days out of date.

Length 229 m; draft 14.4 m.

Type: Cargo ship. MMSI: 215677000.

Date/timePositionNaut miles runAvg speedWind from/ knotsBaromVisibWave heightAir tempDewpointWater temp
2018-Mar-28 16:10N 09°11' W 079°53'4 1.2
2018-Mar-28 12:58N 09°13' W 079°56'0 0.0
2018-Mar-28 11:52N 09°13' W 079°56'0 0.1
2018-Mar-28 11:13N 09°13' W 079°56'0 0.1
2018-Mar-28 10:52N 09°13' W 079°56'0 0.0
2018-Mar-28 10:28N 09°13' W 079°56'0 0.0
2018-Mar-28 09:58N 09°13' W 079°56'0 0.0
2018-Mar-28 09:28N 09°13' W 079°56'0 0.0
2018-Mar-28 08:58N 09°13' W 079°56'0 0.0
2018-Mar-28 08:01N 09°13' W 079°56'0 0.0
2018-Mar-28 07:40N 09°13' W 079°56'0 0.0
2018-Mar-28 06:40N 09°13' W 079°56'0 0.1
2018-Mar-28 06:28N 09°13' W 079°56'0 0.0
2018-Mar-28 05:52N 09°13' W 079°56'0 0.0
2018-Mar-28 05:28N 09°13' W 079°56'0 0.0
2018-Mar-28 04:46N 09°13' W 079°56'0 0.0
2018-Mar-28 03:55N 09°13' W 079°56'0 0.0
2018-Mar-28 03:28N 09°13' W 079°56'0 0.0
2018-Mar-27 23:19N 09°13' W 079°56'0 0.0
2018-Mar-27 22:58N 09°13' W 079°56'0 0.0
2018-Mar-27 22:25N 09°13' W 079°56'0 0.0
2018-Mar-27 21:58N 09°13' W 079°56'0 0.0
2018-Mar-27 21:25N 09°13' W 079°56'0 0.0
2018-Mar-27 17:22N 09°13' W 079°56'0 0.0
2018-Mar-27 16:58N 09°13' W 079°56'0 0.0
2018-Mar-27 16:30N 09°13' W 079°56'0 0.0
2018-Mar-27 16:00N 09°13' W 079°56'0 0.1
2018-Mar-27 15:22N 09°13' W 079°56'0 0.0
2018-Mar-27 14:52N 09°13' W 079°56'0 0.2
2018-Mar-27 14:29N 09°13' W 079°56'0 0.0
2018-Mar-27 14:00N 09°13' W 079°56'0 0.0
2018-Mar-27 13:30N 09°13' W 079°56'0 0.0
2018-Mar-27 12:58N 09°13' W 079°56'0 0.0
2018-Mar-27 12:30N 09°13' W 079°56'0 0.1
2018-Mar-27 11:56N 09°13' W 079°56'3 2.5
2018-Mar-27 10:37N 09°16' W 079°55'0 0.3
2018-Mar-27 10:24N 09°16' W 079°55'0 0.4
2018-Mar-27 10:00N 09°16' W 079°55'0 0.4
2018-Mar-27 09:30N 09°16' W 079°55'0 0.3
2018-Mar-27 08:59N 09°17' W 079°55'0 0.8
2018-Mar-27 08:29N 09°17' W 079°55'1 1.3
2018-Mar-27 08:00N 09°18' W 079°55'1 2.5
2018-Mar-27 07:30N 09°19' W 079°55'2 4.9
2018-Mar-27 07:00N 09°21' W 079°55'3 5.9
2018-Mar-27 06:30N 09°24' W 079°55'2 3.4
2018-Mar-27 06:00N 09°26' W 079°56'1 1.7
2018-Mar-27 05:30N 09°26' W 079°57'0 0.1
2018-Mar-27 04:59N 09°26' W 079°57'0 0.0
2018-Mar-27 04:23N 09°26' W 079°57'0 0.1
2018-Mar-27 03:59N 09°26' W 079°57'0 0.0
2018-Mar-27 03:29N 09°26' W 079°57'0 0.0
2018-Mar-27 02:20N 09°26' W 079°57'0 0.0
2018-Mar-27 01:11N 09°26' W 079°57'0 0.0
2018-Mar-27 00:41N 09°26' W 079°57'0 0.0
2018-Mar-27 00:29N 09°26' W 079°57'0 0.0
2018-Mar-26 23:53N 09°26' W 079°57'0 0.1
2018-Mar-26 23:29N 09°26' W 079°57'0 0.0
2018-Mar-26 22:56N 09°26' W 079°57'0 0.0
2018-Mar-26 22:26N 09°26' W 079°57'0 0.1
2018-Mar-26 21:59N 09°26' W 079°57'0 0.2
2018-Mar-26 21:29N 09°26' W 079°57'0 0.0
2018-Mar-26 20:59N 09°26' W 079°57'0 0.3
2018-Mar-26 20:29N 09°26' W 079°57'0 0.1
2018-Mar-26 19:59N 09°26' W 079°57'0 0.1
2018-Mar-26 19:29N 09°26' W 079°57'0 0.1
2018-Mar-26 18:56N 09°26' W 079°57'0 0.0
2018-Mar-26 18:29N 09°26' W 079°57'0 0.0
2018-Mar-26 17:59N 09°26' W 079°57'0 0.0
2018-Mar-26 09:56N 09°26' W 079°57'0 0.3
2018-Mar-26 09:29N 09°26' W 079°57'0 0.2
2018-Mar-26 08:59N 09°26' W 079°57'0 0.1
2018-Mar-26 08:23N 09°26' W 079°57'0 0.1
2018-Mar-26 07:59N 09°26' W 079°57'0 0.0
2018-Mar-26 06:05N 09°26' W 079°57'0 0.0
2018-Mar-26 05:59N 09°26' W 079°57'0 0.0
2018-Mar-26 03:23N 09°26' W 079°57'0 0.0
2018-Mar-26 02:59N 09°26' W 079°57'0 0.0
2018-Mar-26 02:29N 09°26' W 079°57'0 0.0
2018-Mar-26 01:59N 09°26' W 079°57'0 0.0
2018-Mar-26 01:29N 09°26' W 079°57'0 0.0
2018-Mar-26 00:59N 09°26' W 079°57'0 0.0
2018-Mar-25 23:50N 09°26' W 079°57'0 0.0
2018-Mar-25 23:26N 09°26' W 079°57'0 0.0
2018-Mar-25 22:47N 09°26' W 079°57'0 0.0
2018-Mar-25 22:29N 09°26' W 079°57'0 0.0
2018-Mar-25 21:59N 09°26' W 079°57'0 0.0
2018-Mar-25 21:29N 09°26' W 079°57'0 0.0
2018-Mar-25 20:50N 09°26' W 079°57'0 0.0
2018-Mar-25 20:29N 09°26' W 079°57'0 0.1
2018-Mar-25 19:59N 09°26' W 079°57'0 0.1
2018-Mar-25 19:29N 09°26' W 079°57'0 0.2
2018-Mar-25 18:59N 09°26' W 079°57'1 2.5
2018-Mar-25 18:30N 09°26' W 079°56'4 7.0
2018-Mar-25 18:00N 09°29' W 079°54'29911.6
2018-Mar-24 16:12N 11°07' W 075°06'313.8
2018-Mar-24 16:00N 11°08' W 075°04'713.5
2018-Mar-24 15:30N 11°09' W 074°57'613.0
2018-Mar-24 15:00N 11°10' W 074°50'612.7
2018-Mar-24 14:30N 11°10' W 074°44'712.9
2018-Mar-24 13:59N 11°09' W 074°37'713.2
2018-Mar-24 13:29N 11°09' W 074°31'  
2018-Mar-22 00:02N 11°06' W 074°18'112.0
2018-Mar-21 23:58N 11°06' W 074°18'8 4.3
2018-Mar-21 22:01N 11°14' W 074°15'0 2.2
2018-Mar-21 21:58N 11°14' W 074°15'49 9.9
2018-Mar-21 17:01N 12°03' W 074°19'713.7
2018-Mar-21 16:32N 12°09' W 074°20'213.8
2018-Mar-21 16:22N 12°12' W 074°20'  

Dump ship's entire track history